createdAt,value
2022-11-18T00:01:43.602Z,5.91
2022-11-18T00:04:46.468Z,5.91
2022-11-18T00:07:49.249Z,5.96
2022-11-18T00:10:54.967Z,6.00
2022-11-18T00:14:16.266Z,5.97
2022-11-18T00:17:19.175Z,5.98
2022-11-18T00:20:25.577Z,6.02
2022-11-18T00:23:28.498Z,6.04
2022-11-18T00:26:31.320Z,6.07
2022-11-18T00:29:34.185Z,6.06
2022-11-18T00:32:37.059Z,6.11
2022-11-18T00:35:39.959Z,6.12
2022-11-18T00:38:42.788Z,6.12
2022-11-18T00:42:04.716Z,6.13
2022-11-18T00:45:07.799Z,6.12
2022-11-18T00:48:13.802Z,6.14
2022-11-18T00:51:18.578Z,6.14
2022-11-18T00:54:21.391Z,6.15
2022-11-18T00:57:24.140Z,6.15
2022-11-18T01:00:27.162Z,6.15
2022-11-18T01:03:31.791Z,6.15
2022-11-18T01:06:34.723Z,6.16
2022-11-18T01:09:37.553Z,6.17
2022-11-18T01:13:01.957Z,6.16
2022-11-18T01:16:04.954Z,6.19
2022-11-18T01:19:07.851Z,6.21
2022-11-18T01:22:13.735Z,6.22
2022-11-18T01:25:16.595Z,6.24
2022-11-18T01:28:23.587Z,6.24
2022-11-18T01:31:26.877Z,6.24
2022-11-18T01:34:30.059Z,6.22
2022-11-18T01:37:32.967Z,6.22
2022-11-18T01:40:36.778Z,6.24
2022-11-18T01:43:50.466Z,6.25
2022-11-18T01:46:53.240Z,6.27
2022-11-18T01:49:56.886Z,6.30
2022-11-18T01:53:07.328Z,6.27
2022-11-18T01:56:17.361Z,6.27
2022-11-18T01:59:25.828Z,6.26
2022-11-18T02:02:31.783Z,6.25
2022-11-18T02:05:35.716Z,6.26
2022-11-18T02:08:39.771Z,6.28
2022-11-18T02:11:54.772Z,6.27
2022-11-18T02:14:57.783Z,6.29
2022-11-18T02:18:11.686Z,6.29
2022-11-18T02:21:30.395Z,6.26
2022-11-18T02:25:00.157Z,6.25
2022-11-18T02:28:37.555Z,6.25
2022-11-18T02:32:02.563Z,6.26
2022-11-18T02:35:20.754Z,6.27
2022-11-18T02:38:26.356Z,6.26
2022-11-18T02:41:31.534Z,6.24
2022-11-18T02:44:35.936Z,6.26
2022-11-18T02:47:39.252Z,6.24
2022-11-18T02:50:43.691Z,6.26
2022-11-18T02:53:47.145Z,6.28
2022-11-18T02:56:51.634Z,6.30
2022-11-18T02:59:54.492Z,6.32
2022-11-18T03:02:57.359Z,6.32
2022-11-18T03:06:23.250Z,6.32
2022-11-18T03:09:35.888Z,6.33
2022-11-18T03:13:00.360Z,6.33
2022-11-18T03:16:07.104Z,6.34
2022-11-18T03:19:21.131Z,6.34
2022-11-18T03:22:26.607Z,6.34
2022-11-18T03:25:45.102Z,6.35
2022-11-18T03:28:53.258Z,6.36
2022-11-18T03:32:04.496Z,6.37
2022-11-18T03:35:13.544Z,6.39
2022-11-18T03:38:19.309Z,6.40
2022-11-18T03:41:24.694Z,6.41
2022-11-18T03:44:31.913Z,6.41
2022-11-18T03:47:42.632Z,6.40
2022-11-18T03:50:58.658Z,6.41
2022-11-18T03:54:10.591Z,6.42
2022-11-18T03:57:23.321Z,6.41
2022-11-18T04:00:30.516Z,6.40
2022-11-18T04:03:33.397Z,6.37
2022-11-18T04:06:47.625Z,6.37
2022-11-18T04:10:11.248Z,6.37
2022-11-18T04:13:27.429Z,6.36
2022-11-18T04:16:30.380Z,6.37
2022-11-18T04:19:33.206Z,6.37
2022-11-18T04:22:35.953Z,6.39
2022-11-18T04:25:38.832Z,6.39
2022-11-18T04:28:41.693Z,6.38
2022-11-18T04:31:44.577Z,6.37
2022-11-18T04:34:47.530Z,6.39
2022-11-18T04:37:51.583Z,6.42
2022-11-18T04:40:57.239Z,6.43
2022-11-18T04:44:00.029Z,6.40
2022-11-18T04:47:05.089Z,6.43
2022-11-18T04:50:08.146Z,6.42
2022-11-18T04:53:10.983Z,6.43
2022-11-18T04:56:13.908Z,6.43
2022-11-18T04:59:19.974Z,6.44
2022-11-18T05:02:23.145Z,6.47
2022-11-18T05:05:25.951Z,6.50
2022-11-18T05:08:28.926Z,6.49
2022-11-18T05:11:58.400Z,6.50
2022-11-18T05:15:01.412Z,6.50
2022-11-18T05:18:04.318Z,6.48
2022-11-18T05:21:07.425Z,6.51
2022-11-18T05:24:10.297Z,6.52
2022-11-18T05:27:13.908Z,6.51
2022-11-18T05:30:16.887Z,6.51
2022-11-18T05:33:19.658Z,6.52
2022-11-18T05:36:25.712Z,6.54
2022-11-18T05:39:28.566Z,6.55
2022-11-18T05:42:49.913Z,6.55
2022-11-18T05:45:53.061Z,6.59
2022-11-18T05:48:55.973Z,6.60
2022-11-18T05:52:02.606Z,6.60
2022-11-18T05:55:07.129Z,6.61
2022-11-18T05:58:10.212Z,6.61
2022-11-18T06:01:20.920Z,6.63
2022-11-18T06:04:37.606Z,6.64
2022-11-18T06:07:42.908Z,6.67
2022-11-18T06:10:46.563Z,6.68
2022-11-18T06:14:13.984Z,6.70
2022-11-18T06:17:21.087Z,6.74
2022-11-18T06:20:24.246Z,6.74
2022-11-18T06:23:29.549Z,6.78
2022-11-18T06:26:35.554Z,6.79
2022-11-18T06:29:39.054Z,6.81
2022-11-18T06:32:46.075Z,6.81
2022-11-18T06:35:48.988Z,6.83
2022-11-18T06:38:51.854Z,6.86
2022-11-18T06:41:54.637Z,6.87
2022-11-18T06:44:57.600Z,6.90
2022-11-18T06:48:01.345Z,6.91
2022-11-18T06:51:08.051Z,6.93
2022-11-18T06:54:11.329Z,6.93
2022-11-18T06:57:17.177Z,6.95
2022-11-18T07:00:20.309Z,6.96
2022-11-18T07:03:26.315Z,6.95
2022-11-18T07:06:31.525Z,6.98
2022-11-18T07:09:35.563Z,7.02
2022-11-18T07:12:38.415Z,7.02
2022-11-18T07:15:41.218Z,7.03
2022-11-18T07:18:45.191Z,7.05
2022-11-18T07:21:48.259Z,7.07
2022-11-18T07:24:51.108Z,7.09
2022-11-18T07:27:54.038Z,7.09
2022-11-18T07:31:05.109Z,7.11
2022-11-18T07:34:08.576Z,7.15
2022-11-18T07:37:11.518Z,7.18
2022-11-18T07:40:14.508Z,7.20
2022-11-18T07:43:17.398Z,7.21
2022-11-18T07:46:20.149Z,7.23
2022-11-18T07:49:23.108Z,7.24
2022-11-18T07:52:26.335Z,7.25
2022-11-18T07:55:32.160Z,7.23
2022-11-18T07:58:35.810Z,7.19
2022-11-18T08:01:38.812Z,7.20
2022-11-18T08:04:41.715Z,7.17
2022-11-18T08:07:45.081Z,7.17
2022-11-18T08:10:48.152Z,7.20
2022-11-18T08:13:52.488Z,7.21
2022-11-18T08:16:55.787Z,7.23
2022-11-18T08:19:58.815Z,7.24
2022-11-18T08:23:01.773Z,7.24
2022-11-18T08:26:07.675Z,7.22
2022-11-18T08:29:10.519Z,7.20
2022-11-18T08:32:13.505Z,7.18
2022-11-18T08:35:19.354Z,7.20
2022-11-18T08:38:22.202Z,7.21
2022-11-18T08:41:33.048Z,7.18
2022-11-18T08:44:36.054Z,7.17
2022-11-18T08:47:39.206Z,7.21
2022-11-18T08:50:45.278Z,7.23
2022-11-18T08:53:48.226Z,7.26
2022-11-18T08:56:51.210Z,7.24
2022-11-18T08:59:54.240Z,7.28
2022-11-18T09:02:59.655Z,7.26
2022-11-18T09:06:14.229Z,7.26
2022-11-18T09:09:20.420Z,7.29
2022-11-18T09:12:23.534Z,7.31
2022-11-18T09:15:27.102Z,7.31
2022-11-18T09:18:30.481Z,7.34
2022-11-18T09:21:36.855Z,7.33
2022-11-18T09:24:43.882Z,7.29
2022-11-18T09:27:48.031Z,7.34
2022-11-18T09:30:50.941Z,7.34
2022-11-18T09:33:54.326Z,7.33
2022-11-18T09:36:57.320Z,7.34
2022-11-18T09:40:00.496Z,7.32
2022-11-18T09:43:10.118Z,7.29
2022-11-18T09:46:22.163Z,7.26
2022-11-18T09:49:32.117Z,7.26
2022-11-18T09:52:41.476Z,7.29
2022-11-18T09:55:44.949Z,7.22
2022-11-18T09:58:48.438Z,7.25
2022-11-18T10:01:52.906Z,7.28
2022-11-18T10:04:57.674Z,7.31
2022-11-18T10:08:21.000Z,7.32
2022-11-18T10:11:25.873Z,7.36
2022-11-18T10:14:47.978Z,7.37
2022-11-18T10:18:03.867Z,7.37
2022-11-18T10:21:21.554Z,7.35
2022-11-18T10:24:33.299Z,7.35
2022-11-18T10:27:41.748Z,7.39
2022-11-18T10:30:44.842Z,7.39
2022-11-18T10:33:47.794Z,7.41
2022-11-18T10:37:31.051Z,7.40
2022-11-18T10:41:01.192Z,7.43
2022-11-18T10:44:10.798Z,7.44
2022-11-18T10:47:30.081Z,7.42
2022-11-18T10:50:34.381Z,7.38
2022-11-18T10:53:38.080Z,7.36
2022-11-18T10:56:56.375Z,7.34
2022-11-18T11:00:00.958Z,7.34
2022-11-18T11:03:38.539Z,7.22
2022-11-18T11:06:41.378Z,7.23
2022-11-18T11:10:00.201Z,7.18
2022-11-18T11:13:10.706Z,7.18
2022-11-18T11:16:16.093Z,7.17
2022-11-18T11:19:22.457Z,7.18
2022-11-18T11:22:25.329Z,7.20
2022-11-18T11:30:10.120Z,7.17
2022-11-18T11:33:28.109Z,7.14
2022-11-18T11:36:44.991Z,7.14
2022-11-18T11:40:12.384Z,7.11
2022-11-18T11:43:24.419Z,7.06
2022-11-18T11:47:12.047Z,7.02
2022-11-18T11:51:04.033Z,7.01
2022-11-18T11:54:24.499Z,6.98
2022-11-18T11:57:50.928Z,6.92
2022-11-18T12:01:11.106Z,6.90
2022-11-18T12:04:46.634Z,7.08
2022-11-18T12:07:56.901Z,7.17
2022-11-18T12:11:12.080Z,7.15
2022-11-18T12:14:35.770Z,7.13
2022-11-18T12:17:53.514Z,7.14
2022-11-18T12:20:56.513Z,7.21
2022-11-18T12:24:17.772Z,7.23
2022-11-18T12:27:32.712Z,7.25
2022-11-18T12:30:35.602Z,7.21
2022-11-18T12:33:54.570Z,7.18
2022-11-18T12:36:57.446Z,7.27
2022-11-18T12:40:00.985Z,7.22
2022-11-18T12:43:36.213Z,7.24
2022-11-18T12:46:42.792Z,7.27
2022-11-18T12:49:49.077Z,7.27
2022-11-18T12:52:53.036Z,7.32
2022-11-18T12:55:56.560Z,7.30
2022-11-18T12:59:01.205Z,7.27
2022-11-18T13:02:21.597Z,7.28
2022-11-18T13:05:26.576Z,7.30
2022-11-18T13:08:29.983Z,7.30
2022-11-18T13:11:46.730Z,7.34
2022-11-18T13:15:08.352Z,7.37
2022-11-18T13:18:18.213Z,7.44
2022-11-18T13:21:45.143Z,7.48
2022-11-18T13:24:52.442Z,7.49
2022-11-18T13:28:03.631Z,7.52
2022-11-18T13:31:17.635Z,7.49
2022-11-18T13:34:28.744Z,7.49
2022-11-18T13:37:34.487Z,7.49
2022-11-18T13:41:04.281Z,7.47
2022-11-18T13:44:17.715Z,7.44
2022-11-18T13:47:30.435Z,7.41
2022-11-18T13:50:38.136Z,7.37
2022-11-18T13:53:41.830Z,7.34
2022-11-18T13:56:44.765Z,7.33
2022-11-18T13:59:49.194Z,7.32
2022-11-18T14:03:05.682Z,7.31
2022-11-18T14:06:08.724Z,7.28
2022-11-18T14:09:11.602Z,7.29
2022-11-18T14:15:43.207Z,7.30
2022-11-18T14:18:47.702Z,7.28
2022-11-18T14:21:53.643Z,7.30
2022-11-18T14:24:58.005Z,7.29
2022-11-18T14:28:18.014Z,7.29
2022-11-18T14:31:26.496Z,7.30
2022-11-18T14:34:32.140Z,7.29
2022-11-18T14:37:35.980Z,7.28
2022-11-18T14:40:39.398Z,7.26
2022-11-18T14:43:46.274Z,7.24
2022-11-18T14:46:56.246Z,7.22
2022-11-18T14:49:59.661Z,7.21
2022-11-18T14:53:02.622Z,7.18
2022-11-18T14:56:13.929Z,7.18
2022-11-18T14:59:23.451Z,7.17
2022-11-18T15:02:33.390Z,7.18
2022-11-18T15:05:36.737Z,7.17
2022-11-18T15:08:39.897Z,7.16
2022-11-18T15:11:48.114Z,7.15
2022-11-18T15:14:53.386Z,7.14
2022-11-18T15:17:56.267Z,7.12
2022-11-18T15:20:59.504Z,7.11
2022-11-18T15:24:02.474Z,7.07
2022-11-18T15:27:11.691Z,7.02
2022-11-18T15:30:15.982Z,7.00
2022-11-18T15:33:25.919Z,6.95
2022-11-18T15:36:28.999Z,6.91
2022-11-18T15:39:31.908Z,6.90
2022-11-18T15:42:40.107Z,6.88
2022-11-18T15:45:58.284Z,6.87
2022-11-18T15:49:01.724Z,6.86
2022-11-18T15:52:08.709Z,6.85
2022-11-18T15:55:12.902Z,6.81
2022-11-18T15:58:22.935Z,6.83
2022-11-18T16:01:28.838Z,6.77
2022-11-18T16:04:34.262Z,6.77
2022-11-18T16:07:37.574Z,6.77
2022-11-18T16:10:59.023Z,6.73
2022-11-18T16:14:12.546Z,6.72
2022-11-18T16:17:15.403Z,6.72
2022-11-18T16:20:18.344Z,6.70
2022-11-18T16:23:21.323Z,6.70
2022-11-18T16:26:28.584Z,6.70
2022-11-18T16:29:31.604Z,6.67
2022-11-18T16:32:34.448Z,6.65
2022-11-18T16:35:37.297Z,6.65
2022-11-18T16:38:40.441Z,6.61
2022-11-18T16:41:44.560Z,6.56
2022-11-18T16:44:48.144Z,6.53
2022-11-18T16:47:54.236Z,6.49
2022-11-18T16:51:21.024Z,6.41
2022-11-18T16:54:24.677Z,6.38
2022-11-18T16:57:27.772Z,6.36
2022-11-18T17:01:09.145Z,6.31
2022-11-18T17:03:57.515Z,6.31
2022-11-18T17:07:00.799Z,6.27
2022-11-18T17:10:04.054Z,6.20
2022-11-18T17:13:07.163Z,6.19
2022-11-18T17:16:12.322Z,6.19
2022-11-18T17:19:21.230Z,6.18
2022-11-18T17:22:25.820Z,6.15
2022-11-18T17:25:29.358Z,6.13
2022-11-18T17:28:34.518Z,6.11
2022-11-18T17:31:37.751Z,6.08
2022-11-18T17:34:40.659Z,6.07
2022-11-18T17:37:43.961Z,6.07
2022-11-18T17:40:54.054Z,6.04
2022-11-18T17:44:00.320Z,6.01
2022-11-18T17:47:03.895Z,6.01
2022-11-18T17:50:07.803Z,5.98
2022-11-18T17:53:11.489Z,5.98
2022-11-18T17:56:15.671Z,5.94
2022-11-18T17:59:22.555Z,5.94
2022-11-18T18:02:26.068Z,5.92
2022-11-18T18:05:29.350Z,5.93
2022-11-18T18:08:33.416Z,5.88
2022-11-18T18:11:36.488Z,5.87
2022-11-18T18:14:43.241Z,5.85
2022-11-18T18:17:49.334Z,5.86
2022-11-18T18:20:52.211Z,5.80
2022-11-18T18:23:55.338Z,5.77
2022-11-18T18:27:00.920Z,5.74
2022-11-18T18:30:06.141Z,5.67
2022-11-18T18:33:09.140Z,5.61
2022-11-18T18:36:14.701Z,5.56
2022-11-18T18:39:17.718Z,5.57
2022-11-18T18:42:24.311Z,5.48
2022-11-18T18:45:45.833Z,5.44
2022-11-18T18:48:54.324Z,5.34
2022-11-18T18:51:57.588Z,5.33
2022-11-18T18:55:01.419Z,5.28
2022-11-18T18:58:06.390Z,5.25
2022-11-18T19:01:13.364Z,5.24
2022-11-18T19:04:17.768Z,5.15
2022-11-18T19:07:23.057Z,5.16
2022-11-18T19:10:28.084Z,5.11
2022-11-18T19:13:31.829Z,5.13
2022-11-18T19:16:36.545Z,5.09
2022-11-18T19:19:59.761Z,5.03
2022-11-18T19:23:10.336Z,4.98
2022-11-18T19:26:14.297Z,4.78
2022-11-18T19:29:21.456Z,4.73
2022-11-18T19:32:27.805Z,4.55
2022-11-18T19:35:31.356Z,4.50
2022-11-18T19:38:35.118Z,4.44
2022-11-18T19:41:39.420Z,4.39
2022-11-18T19:44:43.103Z,4.34
2022-11-18T19:47:46.224Z,4.19
2022-11-18T19:50:49.064Z,3.98
2022-11-18T19:53:57.010Z,3.99
2022-11-18T19:57:04.148Z,3.94
2022-11-18T20:00:12.525Z,3.92
2022-11-18T20:03:16.289Z,3.85
2022-11-18T20:06:21.288Z,3.82
2022-11-18T20:09:25.720Z,3.68
2022-11-18T20:12:29.086Z,3.62
2022-11-18T20:15:34.162Z,3.56
2022-11-18T20:18:37.920Z,3.46
2022-11-18T20:21:45.432Z,3.51
2022-11-18T20:24:48.735Z,3.43
2022-11-18T20:27:51.892Z,3.35
2022-11-18T20:30:56.321Z,3.35
2022-11-18T20:33:59.918Z,3.36
2022-11-18T20:37:02.754Z,3.31
2022-11-18T20:40:07.015Z,3.21
2022-11-18T20:43:14.511Z,3.26
2022-11-18T20:46:20.975Z,3.23
2022-11-18T20:49:26.133Z,3.15
2022-11-18T20:52:29.274Z,3.08
2022-11-18T20:55:36.818Z,3.11
2022-11-18T20:58:39.964Z,3.05
2022-11-18T21:01:43.092Z,3.00
2022-11-18T21:04:45.884Z,2.96
2022-11-18T21:07:53.778Z,2.88
2022-11-18T21:11:02.393Z,2.91
2022-11-18T21:14:25.601Z,2.91
2022-11-18T21:17:28.531Z,2.77
2022-11-18T21:20:53.063Z,2.82
2022-11-18T21:23:56.659Z,2.74
2022-11-18T21:27:00.537Z,2.73
2022-11-18T21:30:07.271Z,2.69
2022-11-18T21:33:10.579Z,2.63
2022-11-18T21:36:13.445Z,2.62
2022-11-18T21:39:17.111Z,2.58
2022-11-18T21:42:20.135Z,2.66
2022-11-18T21:45:23.261Z,2.53
2022-11-18T21:48:26.185Z,2.53
2022-11-18T21:51:31.630Z,2.53
2022-11-18T21:54:35.493Z,2.54
2022-11-18T21:57:42.176Z,2.46
2022-11-18T22:00:45.247Z,2.40
2022-11-18T22:03:55.042Z,2.49
2022-11-18T22:06:58.361Z,2.40
2022-11-18T22:10:04.700Z,2.41
2022-11-18T22:13:07.715Z,2.42
2022-11-18T22:16:13.098Z,2.37
2022-11-18T22:19:15.980Z,2.35
2022-11-18T22:22:18.917Z,2.31
2022-11-18T22:25:21.774Z,2.24
2022-11-18T22:28:25.097Z,2.27
2022-11-18T22:31:28.915Z,2.26
2022-11-18T22:34:31.862Z,2.25
2022-11-18T22:37:34.975Z,2.22
2022-11-18T22:40:37.866Z,2.13
2022-11-18T22:43:40.693Z,2.09
2022-11-18T22:46:44.702Z,2.07
2022-11-18T22:49:50.927Z,2.00
2022-11-18T22:52:55.051Z,1.94
2022-11-18T22:56:02.355Z,1.92
2022-11-18T22:59:05.073Z,1.75
2022-11-18T23:02:08.011Z,1.76
2022-11-18T23:05:13.781Z,1.67
2022-11-18T23:08:16.712Z,1.71
2022-11-18T23:11:38.995Z,1.63
2022-11-18T23:14:48.418Z,1.55
2022-11-18T23:17:51.233Z,1.36
2022-11-18T23:21:00.655Z,1.25
2022-11-18T23:24:07.063Z,1.21
2022-11-18T23:27:10.692Z,1.27
2022-11-18T23:30:16.757Z,1.20
2022-11-18T23:33:19.752Z,1.09
2022-11-18T23:36:22.885Z,1.04
2022-11-18T23:39:25.789Z,1.15
2022-11-18T23:42:28.673Z,1.12
2022-11-18T23:45:31.481Z,1.03
2022-11-18T23:48:36.175Z,0.85
2022-11-18T23:51:39.107Z,0.80
2022-11-18T23:54:41.961Z,0.73
2022-11-18T23:57:45.022Z,0.76
